createdAt,value
2022-12-29T00:01:53.787Z,0.60
2022-12-29T00:04:21.992Z,0.60
2022-12-29T00:06:50.341Z,0.60
2022-12-29T00:09:18.936Z,0.50
2022-12-29T00:11:47.122Z,0.60
2022-12-29T00:14:33.484Z,0.57
2022-12-29T00:17:03.074Z,0.60
2022-12-29T00:20:00.472Z,0.50
2022-12-29T00:22:46.035Z,0.47
2022-12-29T00:25:32.880Z,0.80
2022-12-29T00:28:18.853Z,0.53
2022-12-29T00:31:05.078Z,0.60
2022-12-29T00:33:55.385Z,0.43
2022-12-29T00:36:28.561Z,0.40
2022-12-29T00:39:19.032Z,0.40
2022-12-29T00:42:05.108Z,0.50
2022-12-29T00:44:33.310Z,0.50
2022-12-29T00:47:04.038Z,0.40
2022-12-29T00:49:33.173Z,0.40
2022-12-29T00:52:04.347Z,0.40
2022-12-29T00:54:34.673Z,0.40
2022-12-29T00:57:03.497Z,0.40
2022-12-29T00:59:31.707Z,0.37
2022-12-29T01:02:00.387Z,0.50
2022-12-29T01:04:28.798Z,0.30
2022-12-29T01:06:58.414Z,0.30
2022-12-29T01:09:43.996Z,0.33
2022-12-29T01:12:12.859Z,0.30
2022-12-29T01:14:41.335Z,0.37
2022-12-29T01:17:10.022Z,0.30
2022-12-29T01:19:38.333Z,0.40
2022-12-29T01:22:07.934Z,0.30
2022-12-29T01:24:36.119Z,0.30
2022-12-29T01:27:04.451Z,0.40
2022-12-29T01:29:32.650Z,0.30
2022-12-29T01:32:00.983Z,0.37
2022-12-29T01:34:29.744Z,0.40
2022-12-29T01:36:58.003Z,0.40
2022-12-29T01:39:27.620Z,0.40
2022-12-29T01:41:55.924Z,0.30
2022-12-29T01:44:53.532Z,0.40
2022-12-29T01:47:28.392Z,0.50
2022-12-29T01:49:59.672Z,0.40
2022-12-29T01:52:31.708Z,0.40
2022-12-29T01:55:03.431Z,0.40
2022-12-29T01:57:35.459Z,0.60
2022-12-29T02:00:08.262Z,0.40
2022-12-29T02:02:36.781Z,0.50
2022-12-29T02:05:12.855Z,0.40
2022-12-29T02:07:42.803Z,0.80
2022-12-29T02:10:13.814Z,0.53
2022-12-29T02:12:42.573Z,0.50
2022-12-29T02:15:11.399Z,0.40
2022-12-29T02:17:54.927Z,0.53
2022-12-29T02:21:00.098Z,0.50
2022-12-29T02:24:07.380Z,0.60
2022-12-29T02:26:58.770Z,0.67
2022-12-29T02:29:44.705Z,0.50
2022-12-29T02:32:21.696Z,0.60
2022-12-29T02:34:57.294Z,0.50
2022-12-29T02:37:32.743Z,0.60
2022-12-29T02:40:07.969Z,0.70
2022-12-29T02:42:43.807Z,0.53
2022-12-29T02:45:17.089Z,0.70
2022-12-29T02:47:56.869Z,0.50
2022-12-29T02:50:28.724Z,0.50
2022-12-29T02:53:00.572Z,0.57
2022-12-29T02:55:27.956Z,0.67
2022-12-29T02:58:19.075Z,0.60
2022-12-29T03:01:03.638Z,0.50
2022-12-29T03:03:46.714Z,0.70
2022-12-29T03:06:34.931Z,0.40
2022-12-29T03:09:19.042Z,0.50
2022-12-29T03:12:10.490Z,0.60
2022-12-29T03:15:08.622Z,0.50
2022-12-29T03:17:45.491Z,0.50
2022-12-29T03:20:20.245Z,0.50
2022-12-29T03:22:53.213Z,0.50
2022-12-29T03:25:25.740Z,0.60
2022-12-29T03:27:57.819Z,0.50
2022-12-29T03:30:28.438Z,0.50
2022-12-29T03:33:01.230Z,0.40
2022-12-29T03:35:34.672Z,0.40
2022-12-29T03:38:12.906Z,0.43
2022-12-29T03:40:44.415Z,0.40
2022-12-29T03:43:13.496Z,0.50
2022-12-29T03:45:42.359Z,0.40
2022-12-29T03:48:10.499Z,0.50
2022-12-29T03:50:40.072Z,0.50
2022-12-29T03:53:08.355Z,0.50
2022-12-29T03:55:36.893Z,0.50
2022-12-29T03:58:05.157Z,0.50
2022-12-29T04:00:33.369Z,0.70
2022-12-29T04:03:02.754Z,0.40
2022-12-29T04:05:32.073Z,0.50
2022-12-29T04:08:02.502Z,0.57
2022-12-29T04:10:30.753Z,0.50
2022-12-29T04:12:58.997Z,0.50
2022-12-29T04:15:27.617Z,0.50
2022-12-29T04:17:55.974Z,0.57
2022-12-29T04:20:41.853Z,0.50
2022-12-29T04:23:11.448Z,0.50
2022-12-29T04:25:39.599Z,0.70
2022-12-29T04:28:08.943Z,0.63
2022-12-29T04:30:37.394Z,0.50
2022-12-29T04:33:05.841Z,0.50
2022-12-29T04:35:34.033Z,1.13
2022-12-29T04:38:02.264Z,0.73
2022-12-29T04:40:31.795Z,0.40
2022-12-29T04:43:00.059Z,0.53
2022-12-29T04:45:28.286Z,0.63
2022-12-29T04:47:56.572Z,0.63
2022-12-29T04:50:24.760Z,0.73
2022-12-29T04:52:52.996Z,0.50
2022-12-29T04:55:21.303Z,0.70
2022-12-29T04:57:50.899Z,0.47
2022-12-29T05:00:19.458Z,0.67
2022-12-29T05:02:47.826Z,0.70
2022-12-29T05:05:16.438Z,0.60
2022-12-29T05:07:44.835Z,0.43
2022-12-29T05:10:13.486Z,0.50
2022-12-29T05:12:42.602Z,0.53
2022-12-29T05:15:13.087Z,0.70
2022-12-29T05:17:41.292Z,0.60
2022-12-29T05:20:10.603Z,0.67
2022-12-29T05:22:39.052Z,0.60
2022-12-29T05:25:07.908Z,0.50
2022-12-29T05:27:36.035Z,0.70
2022-12-29T05:30:05.230Z,0.60
2022-12-29T05:32:34.826Z,0.70
2022-12-29T05:35:03.215Z,0.50
2022-12-29T05:37:31.481Z,0.50
2022-12-29T05:40:00.255Z,0.50
2022-12-29T05:42:28.439Z,0.50
2022-12-29T05:44:56.573Z,0.67
2022-12-29T05:47:24.844Z,0.53
2022-12-29T05:49:54.551Z,0.60
2022-12-29T05:52:22.750Z,0.50
2022-12-29T05:54:50.952Z,0.67
2022-12-29T05:57:19.169Z,0.67
2022-12-29T05:59:47.424Z,0.80
2022-12-29T06:02:15.728Z,0.87
2022-12-29T06:04:44.149Z,0.70
2022-12-29T06:07:13.934Z,0.50
2022-12-29T06:09:42.245Z,0.60
2022-12-29T06:12:10.473Z,1.00
2022-12-29T06:14:38.708Z,0.70
2022-12-29T06:17:06.984Z,0.40
2022-12-29T06:19:35.708Z,0.40
2022-12-29T06:22:03.966Z,0.70
2022-12-29T06:24:33.538Z,0.50
2022-12-29T06:27:01.988Z,0.40
2022-12-29T06:29:30.222Z,0.40
2022-12-29T06:31:59.302Z,0.37
2022-12-29T06:34:27.627Z,0.40
2022-12-29T06:36:55.922Z,0.50
2022-12-29T06:39:24.169Z,0.50
2022-12-29T06:41:55.681Z,0.40
2022-12-29T06:44:23.987Z,0.43
2022-12-29T06:46:52.762Z,0.40
2022-12-29T06:49:20.982Z,0.50
2022-12-29T06:51:49.519Z,0.67
2022-12-29T06:54:17.781Z,0.40
2022-12-29T06:56:45.972Z,0.70
2022-12-29T06:59:15.630Z,0.60
2022-12-29T07:01:43.920Z,0.60
2022-12-29T07:04:12.114Z,0.50
2022-12-29T07:06:41.560Z,0.60
2022-12-29T07:09:10.733Z,0.60
2022-12-29T07:11:39.178Z,0.70
2022-12-29T07:14:07.400Z,0.50
2022-12-29T07:16:37.073Z,0.60
2022-12-29T07:19:05.629Z,0.90
2022-12-29T07:21:33.947Z,0.70
2022-12-29T07:24:02.111Z,0.60
2022-12-29T07:26:35.903Z,0.80
2022-12-29T07:29:04.754Z,0.70
2022-12-29T07:31:33.287Z,0.83
2022-12-29T07:34:03.077Z,0.60
2022-12-29T07:36:34.650Z,0.60
2022-12-29T07:39:03.332Z,0.97
2022-12-29T07:41:31.673Z,0.50
2022-12-29T07:43:59.873Z,0.40
2022-12-29T07:46:56.461Z,0.73
2022-12-29T07:49:18.334Z,0.60
2022-12-29T07:51:46.584Z,0.87
2022-12-29T07:54:15.038Z,0.67
2022-12-29T07:56:43.224Z,0.63
2022-12-29T07:59:13.010Z,0.70
2022-12-29T08:01:41.499Z,0.70
2022-12-29T08:04:09.999Z,0.87
2022-12-29T08:06:39.591Z,0.70
2022-12-29T08:09:15.147Z,0.50
2022-12-29T08:11:44.992Z,0.73
2022-12-29T08:14:13.427Z,0.83
2022-12-29T08:16:41.718Z,0.90
2022-12-29T08:19:12.663Z,0.80
2022-12-29T08:21:42.508Z,0.70
2022-12-29T08:24:12.190Z,0.60
2022-12-29T08:26:40.949Z,0.90
2022-12-29T08:29:09.470Z,0.97
2022-12-29T08:31:37.859Z,0.73
2022-12-29T08:34:06.719Z,1.07
2022-12-29T08:36:34.905Z,0.60
2022-12-29T08:39:04.463Z,1.10
2022-12-29T08:41:32.924Z,1.17
2022-12-29T08:44:01.665Z,1.27
2022-12-29T08:46:30.111Z,1.30
2022-12-29T08:48:58.335Z,0.87
2022-12-29T08:51:26.619Z,1.00
2022-12-29T08:53:55.166Z,1.00
2022-12-29T08:56:25.555Z,0.83
2022-12-29T08:58:54.369Z,0.93
2022-12-29T09:01:23.371Z,1.13
2022-12-29T09:04:14.447Z,0.87
2022-12-29T09:06:41.052Z,1.23
2022-12-29T09:09:09.482Z,0.90
2022-12-29T09:11:39.127Z,1.17
2022-12-29T09:14:07.527Z,1.00
2022-12-29T09:16:36.146Z,1.17
2022-12-29T09:19:04.813Z,0.60
2022-12-29T09:21:33.285Z,0.80
2022-12-29T09:24:01.502Z,1.00
2022-12-29T09:26:29.828Z,0.90
2022-12-29T09:28:59.807Z,1.07
2022-12-29T09:31:28.062Z,0.67
2022-12-29T09:33:56.292Z,1.27
2022-12-29T09:36:24.500Z,1.10
2022-12-29T09:38:54.650Z,1.60
2022-12-29T09:41:28.455Z,0.93
2022-12-29T09:44:09.347Z,0.67
2022-12-29T09:46:41.248Z,1.00
2022-12-29T09:49:21.077Z,1.10
2022-12-29T09:51:53.521Z,0.80
2022-12-29T09:54:51.516Z,1.30
2022-12-29T09:57:27.431Z,0.90
2022-12-29T10:00:00.590Z,1.10
2022-12-29T10:02:42.408Z,1.10
2022-12-29T10:05:27.726Z,0.90
2022-12-29T10:08:12.486Z,1.07
2022-12-29T10:10:52.795Z,1.60
2022-12-29T10:13:32.979Z,1.10
2022-12-29T10:16:10.497Z,1.40
2022-12-29T10:18:53.661Z,0.83
2022-12-29T10:21:33.399Z,1.20
2022-12-29T10:24:04.536Z,0.90
2022-12-29T10:26:38.025Z,0.60
2022-12-29T10:29:08.324Z,0.90
2022-12-29T10:31:43.264Z,1.27
2022-12-29T10:34:21.012Z,0.83
2022-12-29T10:36:51.370Z,1.30
2022-12-29T10:39:25.517Z,1.47
2022-12-29T10:42:01.202Z,1.27
2022-12-29T10:44:34.191Z,0.93
2022-12-29T10:47:08.685Z,1.00
2022-12-29T10:49:42.197Z,1.13
2022-12-29T10:52:13.131Z,1.83
2022-12-29T10:54:47.962Z,1.60
2022-12-29T10:57:29.092Z,1.50
2022-12-29T10:59:58.049Z,1.13
2022-12-29T11:02:45.297Z,1.30
2022-12-29T11:05:21.668Z,1.00
2022-12-29T11:07:52.001Z,1.03
2022-12-29T11:10:23.247Z,0.80
2022-12-29T11:12:59.313Z,1.50
2022-12-29T11:15:27.975Z,1.10
2022-12-29T11:18:00.349Z,1.63
2022-12-29T11:20:34.696Z,1.07
2022-12-29T11:23:04.016Z,1.87
2022-12-29T11:25:32.260Z,1.40
2022-12-29T11:28:03.287Z,1.30
2022-12-29T11:30:33.605Z,1.17
2022-12-29T11:33:05.727Z,1.37
2022-12-29T11:35:40.812Z,1.07
2022-12-29T11:38:21.314Z,1.10
2022-12-29T11:40:50.362Z,1.03
2022-12-29T11:43:25.379Z,1.00
2022-12-29T11:45:57.487Z,0.90
2022-12-29T11:48:33.756Z,1.43
2022-12-29T11:51:02.217Z,1.00
2022-12-29T11:53:41.737Z,1.00
2022-12-29T11:56:13.043Z,1.03
2022-12-29T11:58:41.819Z,1.17
2022-12-29T12:01:17.578Z,1.30
2022-12-29T12:03:54.952Z,1.10
2022-12-29T12:06:25.421Z,1.13
2022-12-29T16:39:36.715Z,1.80
2022-12-29T16:42:36.232Z,2.10
2022-12-29T16:45:38.291Z,1.67
2022-12-29T16:48:20.212Z,1.63
2022-12-29T16:50:49.488Z,1.70
2022-12-29T16:53:23.800Z,1.50
2022-12-29T16:55:55.161Z,1.63
2022-12-29T16:58:26.280Z,1.67
2022-12-29T17:00:56.699Z,1.93
2022-12-29T17:03:28.142Z,1.60
2022-12-29T17:05:57.849Z,1.70
2022-12-29T17:08:26.250Z,1.73
2022-12-29T17:11:15.418Z,1.37
2022-12-29T17:13:44.011Z,2.03
2022-12-29T17:16:13.551Z,2.23
2022-12-29T17:18:42.121Z,2.07
2022-12-29T17:21:10.360Z,1.93
2022-12-29T17:23:38.547Z,1.97
2022-12-29T17:26:10.095Z,2.10
2022-12-29T17:28:38.516Z,2.30
2022-12-29T17:31:08.993Z,2.20
2022-12-29T17:33:39.956Z,2.37
2022-12-29T17:36:08.761Z,3.67
2022-12-29T17:38:37.801Z,2.90
2022-12-29T17:41:10.033Z,3.30
2022-12-29T17:43:40.118Z,2.90
2022-12-29T17:46:09.085Z,2.10
2022-12-29T17:48:38.388Z,2.60
2022-12-29T17:51:08.017Z,2.63
2022-12-29T17:53:36.251Z,2.50
2022-12-29T17:56:04.581Z,1.87
2022-12-29T17:58:34.299Z,2.00
2022-12-29T18:01:06.247Z,1.80
2022-12-29T18:03:37.000Z,2.53
2022-12-29T18:06:08.493Z,2.63
2022-12-29T18:08:38.732Z,2.30
2022-12-29T18:11:13.644Z,2.40
2022-12-29T18:13:46.413Z,2.90
2022-12-29T18:16:16.994Z,2.50
2022-12-29T18:18:45.445Z,2.50
2022-12-29T18:21:19.158Z,2.60
2022-12-29T18:23:48.311Z,2.87
2022-12-29T18:26:25.471Z,2.73
2022-12-29T18:28:55.504Z,1.90
2022-12-29T18:31:26.962Z,2.40
2022-12-29T18:33:56.034Z,1.80
2022-12-29T18:36:24.694Z,2.40
2022-12-29T18:38:54.581Z,1.90
2022-12-29T18:41:26.327Z,1.80
2022-12-29T18:43:54.527Z,1.73
2022-12-29T18:46:24.508Z,1.90
2022-12-29T18:48:53.308Z,2.00
2022-12-29T18:51:23.562Z,2.10
2022-12-29T18:53:53.758Z,2.00
2022-12-29T18:56:22.571Z,2.67
2022-12-29T18:58:51.554Z,2.20
2022-12-29T19:01:25.858Z,2.00
2022-12-29T19:03:54.801Z,3.30
2022-12-29T19:06:23.501Z,2.47
2022-12-29T19:08:54.959Z,3.57
2022-12-29T19:11:24.238Z,2.57
2022-12-29T19:13:52.444Z,3.40
2022-12-29T19:16:23.768Z,2.03
2022-12-29T19:19:08.228Z,1.90
2022-12-29T19:21:37.827Z,2.30
2022-12-29T19:24:07.013Z,2.93
2022-12-29T19:26:39.889Z,1.60
2022-12-29T19:29:14.501Z,2.13
2022-12-29T19:31:42.863Z,1.83
2022-12-29T19:34:15.295Z,2.07
2022-12-29T19:36:44.479Z,1.70
2022-12-29T19:39:13.732Z,1.60
2022-12-29T19:41:41.952Z,1.97
2022-12-29T19:44:10.350Z,2.03
2022-12-29T19:46:38.868Z,1.60
2022-12-29T19:49:07.146Z,1.87
2022-12-29T19:51:36.706Z,1.83
2022-12-29T19:54:05.059Z,2.67
2022-12-29T19:56:33.278Z,1.30
2022-12-29T19:59:02.510Z,2.20
2022-12-29T20:01:31.008Z,2.30
2022-12-29T20:04:00.447Z,2.73
2022-12-29T20:06:28.634Z,2.00
2022-12-29T20:08:58.623Z,2.20
2022-12-29T20:11:26.831Z,1.80
2022-12-29T20:13:55.122Z,2.10
2022-12-29T20:16:25.845Z,2.27
2022-12-29T20:18:55.737Z,2.17
2022-12-29T20:21:32.658Z,2.57
2022-12-29T20:24:02.724Z,2.10
2022-12-29T20:26:31.273Z,2.10
2022-12-29T20:29:00.165Z,1.50
2022-12-29T20:31:31.507Z,2.40
2022-12-29T20:34:00.092Z,2.10
2022-12-29T20:36:31.527Z,1.73
2022-12-29T20:39:04.104Z,1.80
2022-12-29T20:41:33.876Z,1.90
2022-12-29T20:44:04.189Z,1.70
2022-12-29T20:46:39.427Z,2.17
2022-12-29T20:49:11.619Z,1.93
2022-12-29T20:54:38.668Z,1.80
2022-12-29T20:57:08.354Z,2.20
2022-12-29T20:59:36.822Z,2.30
2022-12-29T21:02:05.305Z,2.00
2022-12-29T21:04:57.443Z,2.17
2022-12-29T21:07:21.929Z,1.73
2022-12-29T21:10:05.549Z,2.77
2022-12-29T21:12:36.359Z,3.20
2022-12-29T21:15:05.259Z,2.80
2022-12-29T21:17:33.883Z,1.73
2022-12-29T21:20:02.217Z,2.27
2022-12-29T21:22:30.523Z,2.50
2022-12-29T21:25:00.137Z,2.27
2022-12-29T21:27:28.602Z,2.37
2022-12-29T21:29:58.018Z,2.10
2022-12-29T21:32:26.385Z,2.90
2022-12-29T21:34:54.802Z,2.27
2022-12-29T21:37:23.921Z,2.40
2022-12-29T21:39:52.418Z,2.33
2022-12-29T21:42:22.616Z,2.67
2022-12-29T21:45:08.546Z,1.63
2022-12-29T21:47:50.706Z,2.00
2022-12-29T21:50:19.137Z,2.00
2022-12-29T21:52:47.368Z,2.27
2022-12-29T21:55:15.636Z,1.73
2022-12-29T21:58:02.699Z,2.37
2022-12-29T22:00:45.000Z,2.00
2022-12-29T22:03:31.200Z,1.67
2022-12-29T22:06:16.818Z,1.80
2022-12-29T22:09:02.441Z,3.10
2022-12-29T22:11:48.276Z,1.97
2022-12-29T22:14:17.987Z,1.93
2022-12-29T22:16:46.179Z,2.87
2022-12-29T22:19:15.777Z,2.03
2022-12-29T22:21:43.998Z,2.77
2022-12-29T22:24:12.412Z,1.73
2022-12-29T22:26:40.935Z,3.40
2022-12-29T22:29:09.387Z,1.93
2022-12-29T22:31:39.027Z,2.60
2022-12-29T22:34:07.413Z,2.10
2022-12-29T22:36:35.666Z,2.40
2022-12-29T22:39:03.914Z,1.90
2022-12-29T22:41:32.197Z,2.03
2022-12-29T22:44:00.541Z,2.33
2022-12-29T22:46:29.043Z,3.50
2022-12-29T22:48:59.256Z,2.07
2022-12-29T22:51:27.737Z,2.30
2022-12-29T22:53:56.192Z,1.90
2022-12-29T22:56:24.531Z,2.80
2022-12-29T22:58:52.770Z,2.70
2022-12-29T23:01:22.510Z,2.13
2022-12-29T23:03:51.078Z,1.83
2022-12-29T23:06:21.060Z,1.97
2022-12-29T23:08:49.396Z,2.13
2022-12-29T23:11:18.379Z,1.40
2022-12-29T23:13:46.886Z,2.07
2022-12-29T23:16:17.023Z,1.70
2022-12-29T23:18:46.663Z,1.97
2022-12-29T23:21:16.265Z,1.87
2022-12-29T23:23:56.003Z,2.07
2022-12-29T23:26:26.791Z,2.37
2022-12-29T23:28:59.982Z,1.87
2022-12-29T23:31:29.241Z,2.30
2022-12-29T23:33:57.531Z,2.33
2022-12-29T23:36:25.706Z,2.30
2022-12-29T23:38:55.205Z,2.13
2022-12-29T23:41:48.528Z,2.20
2022-12-29T23:44:22.223Z,2.10
2022-12-29T23:47:02.289Z,1.70
2022-12-29T23:49:33.521Z,1.73
2022-12-29T23:52:01.639Z,1.37
2022-12-29T23:54:31.202Z,3.23
2022-12-29T23:56:59.627Z,2.00
2022-12-29T23:59:27.996Z,1.80
